createdAt,value
2018-07-19T00:02:18.363Z,3.70
2018-07-19T00:04:46.580Z,3.07
2018-07-19T00:07:14.792Z,3.70
2018-07-19T00:09:42.996Z,3.40
2018-07-19T00:12:11.218Z,3.67
2018-07-19T00:14:39.448Z,3.33
2018-07-19T00:17:08.057Z,3.23
2018-07-19T00:19:36.295Z,3.70
2018-07-19T00:22:04.520Z,3.33
2018-07-19T00:24:32.740Z,3.60
2018-07-19T00:27:00.965Z,3.47
2018-07-19T00:29:29.182Z,3.30
2018-07-19T00:31:57.403Z,3.40
2018-07-19T00:34:25.613Z,2.90
2018-07-19T00:36:53.836Z,3.00
2018-07-19T00:39:22.077Z,3.00
2018-07-19T00:41:50.281Z,2.87
2018-07-19T00:44:18.526Z,3.20
2018-07-19T00:46:47.032Z,3.00
2018-07-19T00:49:15.288Z,2.87
2018-07-19T00:51:43.513Z,3.40
2018-07-19T00:54:11.724Z,3.20
2018-07-19T00:56:39.981Z,3.30
2018-07-19T00:59:08.184Z,3.07
2018-07-19T01:01:36.472Z,3.10
2018-07-19T01:04:04.712Z,3.30
2018-07-19T01:06:32.929Z,2.90
2018-07-19T01:09:01.138Z,3.80
2018-07-19T01:11:29.344Z,3.20
2018-07-19T01:13:57.572Z,3.20
2018-07-19T01:16:25.789Z,2.80
2018-07-19T01:18:54.014Z,3.47
2018-07-19T01:21:22.265Z,3.43
2018-07-19T01:23:50.476Z,3.70
2018-07-19T01:26:18.698Z,3.80
2018-07-19T01:28:46.912Z,3.67
2018-07-19T01:31:15.144Z,3.07
2018-07-19T01:33:43.368Z,3.60
2018-07-19T01:36:11.589Z,3.90
2018-07-19T01:38:39.827Z,3.50
2018-07-19T01:41:19.289Z,3.53
2018-07-19T01:43:47.541Z,3.27
2018-07-19T01:46:15.752Z,3.73
2018-07-19T01:48:43.970Z,4.00
2018-07-19T01:51:12.184Z,3.87
2018-07-19T01:53:40.428Z,3.67
2018-07-19T01:56:08.637Z,3.53
2018-07-19T01:58:36.854Z,3.20
2018-07-19T02:01:05.087Z,3.50
2018-07-19T02:03:33.309Z,3.93
2018-07-19T02:06:01.517Z,4.07
2018-07-19T02:08:29.749Z,4.17
2018-07-19T02:10:57.976Z,4.10
2018-07-19T02:13:26.173Z,3.77
2018-07-19T02:15:54.656Z,3.60
2018-07-19T02:18:22.852Z,4.10
2018-07-19T02:20:51.064Z,3.70
2018-07-19T02:23:19.281Z,3.80
2018-07-19T02:25:47.488Z,3.67
2018-07-19T02:28:15.705Z,4.00
2018-07-19T02:30:43.926Z,3.63
2018-07-19T02:33:12.149Z,4.10
2018-07-19T02:35:40.348Z,3.30
2018-07-19T02:38:08.561Z,3.60
2018-07-19T02:40:36.780Z,3.90
2018-07-19T02:43:05.057Z,3.50
2018-07-19T02:45:33.273Z,3.17
2018-07-19T02:48:01.489Z,3.27
2018-07-19T02:50:29.720Z,3.87
2018-07-19T02:52:57.927Z,3.63
2018-07-19T02:55:26.141Z,3.67
2018-07-19T02:57:54.376Z,3.57
2018-07-19T03:00:22.620Z,3.30
2018-07-19T03:02:50.829Z,4.43
2018-07-19T03:05:19.056Z,3.37
2018-07-19T03:07:47.316Z,3.27
2018-07-19T03:10:15.504Z,4.17
2018-07-19T03:12:43.734Z,3.50
2018-07-19T03:15:11.949Z,3.90
2018-07-19T03:17:40.162Z,3.60
2018-07-19T03:20:08.370Z,3.40
2018-07-19T03:22:36.617Z,3.60
2018-07-19T03:25:04.861Z,3.97
2018-07-19T03:27:33.166Z,3.70
2018-07-19T03:30:01.361Z,3.37
2018-07-19T03:32:29.580Z,3.47
2018-07-19T03:34:57.789Z,3.60
2018-07-19T03:37:26.013Z,3.70
2018-07-19T03:39:54.232Z,3.40
2018-07-19T03:42:22.432Z,2.97
2018-07-19T03:44:50.652Z,3.90
2018-07-19T03:47:18.853Z,4.00
2018-07-19T03:49:47.084Z,4.00
2018-07-19T03:52:16.200Z,3.87
2018-07-19T03:54:44.453Z,3.30
2018-07-19T03:57:12.664Z,3.40
2018-07-19T03:59:40.876Z,3.10
2018-07-19T04:02:09.112Z,3.37
2018-07-19T04:04:37.362Z,3.37
2018-07-19T04:07:05.992Z,3.40
2018-07-19T04:09:34.193Z,3.90
2018-07-19T04:12:02.413Z,4.50
2018-07-19T04:14:30.617Z,3.77
2018-07-19T04:16:58.887Z,3.30
2018-07-19T04:19:27.049Z,4.10
2018-07-19T04:21:55.270Z,3.70
2018-07-19T04:24:23.485Z,3.30
2018-07-19T04:26:51.856Z,3.00
2018-07-19T04:29:21.516Z,3.93
2018-07-19T04:31:49.729Z,4.20
2018-07-19T04:34:17.989Z,5.07
2018-07-19T04:36:46.207Z,4.33
2018-07-19T04:39:14.433Z,4.20
2018-07-19T04:41:42.645Z,3.83
2018-07-19T04:44:10.872Z,4.63
2018-07-19T04:46:39.108Z,4.17
2018-07-19T04:49:07.353Z,4.50
2018-07-19T04:51:35.576Z,4.10
2018-07-19T04:54:03.821Z,3.53
2018-07-19T04:56:32.100Z,4.00
2018-07-19T04:59:00.341Z,4.43
2018-07-19T05:01:28.565Z,4.00
2018-07-19T05:03:56.821Z,4.27
2018-07-19T05:06:25.042Z,4.00
2018-07-19T05:08:53.248Z,4.43
2018-07-19T05:11:21.456Z,5.00
2018-07-19T05:13:49.688Z,4.50
2018-07-19T05:16:17.913Z,3.63
2018-07-19T05:18:46.136Z,4.37
2018-07-19T05:21:14.356Z,4.47
2018-07-19T05:23:43.420Z,4.13
2018-07-19T05:26:11.691Z,3.80
2018-07-19T05:28:39.908Z,4.93
2018-07-19T05:31:08.148Z,4.17
2018-07-19T05:33:36.388Z,4.20
2018-07-19T05:36:04.617Z,4.07
2018-07-19T05:38:32.849Z,4.37
2018-07-19T05:41:01.073Z,4.63
2018-07-19T05:43:29.288Z,4.43
2018-07-19T05:45:57.561Z,3.80
2018-07-19T05:48:25.774Z,3.87
2018-07-19T05:50:54.029Z,4.10
2018-07-19T05:53:22.299Z,4.67
2018-07-19T05:55:50.500Z,5.03
2018-07-19T05:58:18.998Z,4.10
2018-07-19T06:00:47.208Z,5.10
2018-07-19T06:03:15.468Z,5.30
2018-07-19T06:05:43.850Z,4.50
2018-07-19T06:08:12.140Z,4.53
2018-07-19T06:10:40.543Z,4.57
2018-07-19T06:13:08.860Z,5.03
2018-07-19T06:15:37.080Z,4.87
2018-07-19T06:18:05.293Z,4.83
2018-07-19T06:20:33.509Z,5.03
2018-07-19T06:23:01.720Z,5.70
2018-07-19T06:25:29.968Z,5.33
2018-07-19T06:27:58.221Z,5.27
2018-07-19T06:30:26.450Z,5.10
2018-07-19T06:32:54.647Z,4.90
2018-07-19T06:35:22.868Z,4.73
2018-07-19T06:37:51.149Z,4.30
2018-07-19T06:40:19.376Z,4.40
2018-07-19T06:42:47.604Z,4.47
2018-07-19T06:45:15.873Z,5.53
2018-07-19T06:47:44.381Z,9.77
2018-07-19T06:50:12.618Z,6.47
2018-07-19T06:52:40.980Z,6.70
2018-07-19T06:55:09.224Z,6.57
2018-07-19T06:57:37.543Z,7.70
2018-07-19T07:00:07.269Z,7.63
2018-07-19T07:02:35.473Z,7.17
2018-07-19T07:05:03.769Z,6.60
2018-07-19T07:07:32.005Z,6.43
2018-07-19T07:10:00.218Z,6.50
2018-07-19T07:12:28.437Z,7.00
2018-07-19T07:14:56.679Z,7.23
2018-07-19T07:17:24.864Z,6.63
2018-07-19T07:19:53.076Z,5.80
2018-07-19T07:22:21.300Z,6.77
2018-07-19T07:24:49.548Z,6.13
2018-07-19T07:27:17.789Z,6.47
2018-07-19T07:29:46.008Z,5.63
2018-07-19T07:32:14.236Z,5.57
2018-07-19T07:34:42.486Z,5.60
2018-07-19T07:37:10.721Z,5.57
2018-07-19T07:39:38.920Z,6.20
2018-07-19T07:42:07.169Z,5.27
2018-07-19T07:44:35.401Z,5.87
2018-07-19T07:47:03.600Z,6.53
2018-07-19T07:49:31.832Z,6.50
2018-07-19T07:52:00.256Z,5.83
2018-07-19T07:54:28.489Z,6.23
2018-07-19T07:56:56.704Z,5.97
2018-07-19T07:59:24.948Z,6.03
2018-07-19T08:01:53.136Z,5.93
2018-07-19T08:04:21.392Z,5.60
2018-07-19T08:06:49.632Z,5.57
2018-07-19T08:09:17.868Z,5.47
2018-07-19T08:11:46.097Z,4.53
2018-07-19T08:14:14.297Z,4.50
2018-07-19T08:16:42.525Z,4.80
2018-07-19T08:19:10.744Z,5.27
2018-07-19T08:21:39.024Z,4.53
2018-07-19T08:24:07.197Z,4.17
2018-07-19T08:26:35.449Z,3.97
2018-07-19T08:29:03.734Z,4.40
2018-07-19T08:31:31.944Z,4.33
2018-07-19T08:34:00.165Z,3.63
2018-07-19T08:36:28.369Z,3.33
2018-07-19T08:38:56.628Z,3.93
2018-07-19T08:41:24.825Z,4.03
2018-07-19T08:43:53.060Z,4.13
2018-07-19T08:46:21.273Z,3.67
2018-07-19T08:48:49.524Z,3.70
2018-07-19T08:51:17.761Z,3.83
2018-07-19T08:53:45.981Z,4.07
2018-07-19T08:56:14.229Z,3.30
2018-07-19T08:58:42.472Z,3.30
2018-07-19T09:01:10.721Z,3.53
2018-07-19T09:03:38.937Z,4.17
2018-07-19T09:06:07.177Z,3.60
2018-07-19T09:08:35.459Z,3.93
2018-07-19T09:11:03.656Z,3.37
2018-07-19T09:13:31.880Z,3.40
2018-07-19T09:16:00.109Z,4.10
2018-07-19T09:18:28.332Z,3.13
2018-07-19T09:20:56.562Z,2.87
2018-07-19T09:23:24.776Z,3.37
2018-07-19T09:25:53.634Z,3.60
2018-07-19T09:28:21.922Z,3.50
2018-07-19T09:30:50.194Z,2.50
2018-07-19T09:33:18.420Z,3.50
2018-07-19T09:35:46.643Z,2.93
2018-07-19T09:38:14.874Z,3.00
2018-07-19T09:40:43.117Z,3.27
2018-07-19T09:43:11.353Z,3.30
2018-07-19T09:45:39.605Z,3.10
2018-07-19T09:48:07.840Z,3.10
2018-07-19T09:50:36.065Z,3.40
2018-07-19T09:53:04.316Z,2.97
2018-07-19T09:55:32.540Z,2.80
2018-07-19T09:58:00.781Z,2.77
2018-07-19T10:00:34.489Z,3.33
2018-07-19T10:03:02.718Z,2.83
2018-07-19T10:05:30.928Z,2.70
2018-07-19T10:07:59.138Z,2.70
2018-07-19T10:10:27.412Z,2.53
2018-07-19T10:12:55.669Z,2.97
2018-07-19T10:15:23.947Z,3.30
2018-07-19T10:17:52.153Z,2.67
2018-07-19T10:20:20.464Z,2.63
2018-07-19T10:22:48.777Z,2.87
2018-07-19T10:25:17.436Z,2.80
2018-07-19T10:27:45.713Z,3.03
2018-07-19T10:30:13.947Z,2.70
2018-07-19T10:32:42.171Z,2.97
2018-07-19T10:35:10.391Z,3.43
2018-07-19T10:37:38.665Z,3.30
2018-07-19T10:40:06.957Z,2.70
2018-07-19T10:42:35.188Z,3.03
2018-07-19T10:45:03.480Z,3.20
2018-07-19T10:47:31.729Z,2.83
2018-07-19T10:49:59.933Z,2.87
2018-07-19T10:52:28.168Z,3.60
2018-07-19T10:54:56.374Z,3.63
2018-07-19T10:57:24.637Z,3.73
2018-07-19T10:59:52.828Z,3.80
2018-07-19T11:02:21.069Z,3.20
2018-07-19T11:04:49.264Z,3.27
2018-07-19T11:07:17.608Z,3.20
2018-07-19T11:09:45.923Z,2.70
2018-07-19T11:12:14.056Z,3.00
2018-07-19T11:14:42.271Z,3.30
2018-07-19T11:17:10.468Z,3.27
2018-07-19T11:19:38.677Z,3.20
2018-07-19T11:22:07.108Z,2.93
2018-07-19T11:24:35.344Z,3.00
2018-07-19T11:27:03.550Z,2.77
2018-07-19T11:29:31.801Z,2.80
2018-07-19T11:32:00.013Z,2.63
2018-07-19T11:34:28.244Z,2.67
2018-07-19T11:36:56.476Z,2.87
2018-07-19T11:39:24.710Z,3.10
2018-07-19T11:41:53.405Z,3.10
2018-07-19T11:44:21.621Z,2.77
2018-07-19T11:46:49.859Z,3.20
2018-07-19T11:49:18.072Z,3.23
2018-07-19T11:51:46.305Z,3.73
2018-07-19T11:54:14.532Z,3.60
2018-07-19T11:56:42.733Z,4.47
2018-07-19T11:59:10.953Z,4.50
2018-07-19T12:01:39.204Z,4.87
2018-07-19T12:04:07.401Z,4.83
2018-07-19T12:06:35.660Z,20.40
2018-07-19T12:09:05.916Z,6.57
2018-07-19T12:11:34.177Z,3.80
2018-07-19T12:14:02.421Z,3.33
2018-07-19T12:16:30.645Z,3.27
2018-07-19T12:18:58.881Z,3.97
2018-07-19T12:21:27.113Z,3.43
2018-07-19T12:23:55.690Z,2.80
2018-07-19T12:26:23.920Z,3.20
2018-07-19T12:28:52.673Z,2.83
2018-07-19T12:31:20.933Z,2.90
2018-07-19T12:33:49.133Z,2.90
2018-07-19T12:36:17.362Z,3.07
2018-07-19T12:38:45.569Z,3.03
2018-07-19T12:41:13.804Z,3.30
2018-07-19T12:43:42.031Z,3.33
2018-07-19T12:46:10.253Z,3.10
2018-07-19T12:48:38.459Z,3.37
2018-07-19T12:51:06.703Z,3.17
2018-07-19T12:53:34.929Z,3.33
2018-07-19T12:56:03.225Z,3.13
2018-07-19T12:58:31.449Z,3.07
2018-07-19T13:00:59.665Z,3.10
2018-07-19T13:03:27.900Z,3.30
2018-07-19T13:05:56.140Z,3.60
2018-07-19T13:08:24.351Z,3.93
2018-07-19T13:10:52.564Z,3.60
2018-07-19T13:13:21.402Z,3.27
2018-07-19T13:15:49.633Z,3.03
2018-07-19T13:18:17.877Z,3.40
2018-07-19T13:20:46.105Z,3.67
2018-07-19T13:23:14.309Z,3.37
2018-07-19T13:25:42.553Z,3.10
2018-07-19T13:28:10.773Z,3.30
2018-07-19T13:30:39.027Z,3.27
2018-07-19T13:33:07.272Z,3.30
2018-07-19T13:35:35.501Z,3.57
2018-07-19T13:38:03.740Z,3.20
2018-07-19T13:40:32.067Z,3.00
2018-07-19T13:43:00.206Z,2.57
2018-07-19T13:45:28.452Z,2.97
2018-07-19T13:47:56.673Z,3.07
2018-07-19T13:50:24.918Z,3.37
2018-07-19T13:53:04.416Z,2.50
2018-07-19T13:55:32.649Z,2.97
2018-07-19T13:58:00.880Z,2.60
2018-07-19T14:00:29.097Z,3.10
2018-07-19T14:02:57.321Z,2.90
2018-07-19T14:05:25.556Z,3.00
2018-07-19T14:07:53.778Z,2.83
2018-07-19T14:10:21.997Z,2.90
2018-07-19T14:12:50.232Z,2.77
2018-07-19T14:15:18.448Z,3.33
2018-07-19T14:17:46.673Z,3.20
2018-07-19T14:20:14.877Z,3.80
2018-07-19T14:22:43.109Z,3.20
2018-07-19T14:25:11.316Z,3.07
2018-07-19T14:27:39.552Z,3.20
2018-07-19T14:30:07.837Z,3.23
2018-07-19T14:32:36.077Z,2.83
2018-07-19T14:35:04.597Z,2.93
2018-07-19T14:37:32.817Z,3.20
2018-07-19T14:40:01.053Z,3.10
2018-07-19T14:42:29.309Z,3.00
2018-07-19T14:44:57.545Z,3.40
2018-07-19T14:47:25.778Z,3.23
2018-07-19T14:49:53.986Z,3.37
2018-07-19T14:52:22.248Z,3.77
2018-07-19T14:54:50.482Z,3.50
2018-07-19T14:57:18.695Z,3.87
2018-07-19T14:59:46.924Z,3.77
2018-07-19T15:02:15.212Z,3.63
2018-07-19T15:04:43.452Z,3.77
2018-07-19T15:07:11.665Z,4.07
2018-07-19T15:09:39.921Z,3.90
2018-07-19T15:12:08.164Z,3.90
2018-07-19T15:14:36.400Z,3.43
2018-07-19T15:17:04.697Z,3.27
2018-07-19T15:19:32.913Z,3.40
2018-07-19T15:22:01.141Z,3.60
2018-07-19T15:24:29.360Z,3.33
2018-07-19T15:26:57.580Z,3.20
2018-07-19T15:29:25.784Z,3.47
2018-07-19T15:31:54.036Z,3.40
2018-07-19T15:34:22.293Z,3.47
2018-07-19T15:36:50.517Z,3.60
2018-07-19T15:39:18.720Z,3.10
2018-07-19T15:41:46.961Z,3.07
2018-07-19T15:44:15.209Z,3.10
2018-07-19T15:46:43.417Z,3.20
2018-07-19T15:49:11.629Z,3.00
2018-07-19T15:51:39.853Z,3.37
2018-07-19T15:54:08.088Z,3.50
2018-07-19T15:56:36.333Z,3.10
2018-07-19T15:59:04.585Z,3.20
2018-07-19T16:01:32.832Z,2.83
2018-07-19T16:04:01.016Z,3.50
2018-07-19T16:06:29.241Z,3.60
2018-07-19T16:08:57.460Z,2.90
2018-07-19T16:11:25.696Z,4.57
2018-07-19T16:13:53.964Z,3.67
2018-07-19T16:16:22.136Z,3.30
2018-07-19T16:18:50.399Z,2.53
2018-07-19T16:21:18.605Z,2.73
2018-07-19T16:23:46.824Z,3.60
2018-07-19T16:26:15.091Z,3.23
2018-07-19T16:28:43.301Z,3.17
2018-07-19T16:31:11.536Z,3.43
2018-07-19T16:33:39.805Z,4.07
2018-07-19T16:36:08.049Z,4.07
2018-07-19T16:38:36.284Z,3.70
2018-07-19T16:41:04.506Z,3.63
2018-07-19T16:43:32.721Z,4.00
2018-07-19T16:46:00.969Z,3.10
2018-07-19T16:48:29.189Z,6.33
2018-07-19T16:50:57.421Z,4.40
2018-07-19T16:53:25.788Z,3.57
2018-07-19T16:55:54.033Z,3.30
2018-07-19T16:58:22.345Z,3.97
2018-07-19T17:00:50.553Z,4.20
2018-07-19T17:03:18.884Z,3.67
2018-07-19T17:05:47.096Z,3.87
2018-07-19T17:08:15.336Z,4.23
2018-07-19T17:10:43.601Z,8.03
2018-07-19T17:13:12.109Z,5.90
2018-07-19T17:15:40.312Z,4.30
2018-07-19T17:18:08.660Z,3.63
2018-07-19T17:20:36.981Z,4.37
2018-07-19T17:23:05.226Z,5.87
2018-07-19T17:25:33.464Z,4.87
2018-07-19T17:28:01.677Z,4.73
2018-07-19T17:30:29.910Z,4.30
2018-07-19T17:32:58.116Z,4.50
2018-07-19T17:35:26.350Z,5.13
2018-07-19T17:37:54.596Z,5.73
2018-07-19T17:40:22.861Z,4.17
2018-07-19T17:42:51.072Z,4.03
2018-07-19T17:45:19.301Z,4.40
2018-07-19T17:47:47.509Z,4.20
2018-07-19T17:50:15.725Z,3.80
2018-07-19T17:52:44.801Z,4.13
2018-07-19T17:55:13.029Z,3.67
2018-07-19T17:57:41.241Z,3.60
2018-07-19T18:00:09.517Z,4.00
2018-07-19T18:02:37.734Z,3.40
2018-07-19T18:05:06.139Z,3.40
2018-07-19T18:07:34.356Z,3.33
2018-07-19T18:10:02.581Z,3.00
2018-07-19T18:12:30.803Z,3.53
2018-07-19T18:14:59.016Z,3.43
2018-07-19T18:17:27.233Z,3.60
2018-07-19T18:19:55.444Z,3.33
2018-07-19T18:22:23.679Z,3.77
2018-07-19T18:24:51.881Z,3.40
2018-07-19T18:27:20.104Z,3.30
2018-07-19T18:29:48.322Z,3.90
2018-07-19T18:32:16.536Z,3.80
2018-07-19T18:34:44.750Z,3.70
2018-07-19T18:37:12.977Z,3.67
2018-07-19T18:39:41.242Z,3.70
2018-07-19T18:42:09.527Z,3.27
2018-07-19T18:44:37.747Z,3.40
2018-07-19T18:47:06.099Z,3.60
2018-07-19T18:49:34.325Z,3.13
2018-07-19T18:52:02.549Z,3.00
2018-07-19T18:54:30.776Z,3.57
2018-07-19T18:56:58.977Z,3.70
2018-07-19T18:59:27.193Z,3.07
2018-07-19T19:01:55.414Z,3.53
2018-07-19T19:04:23.637Z,3.37
2018-07-19T19:06:51.850Z,3.43
2018-07-19T19:09:20.056Z,3.23
2018-07-19T19:11:48.294Z,3.33
2018-07-19T19:14:16.500Z,3.73
2018-07-19T19:16:44.744Z,4.10
2018-07-19T19:19:12.961Z,4.37
2018-07-19T19:21:41.172Z,4.93
2018-07-19T19:24:09.390Z,4.47
2018-07-19T19:26:37.628Z,4.13
2018-07-19T19:29:05.856Z,4.00
2018-07-19T19:31:34.057Z,4.47
2018-07-19T19:34:02.272Z,4.17
2018-07-19T19:36:30.573Z,4.17
2018-07-19T19:38:58.789Z,4.33
2018-07-19T19:41:27.621Z,4.77
2018-07-19T19:43:55.830Z,4.20
2018-07-19T19:46:24.087Z,5.00
2018-07-19T19:48:52.288Z,5.47
2018-07-19T19:51:20.501Z,5.60
2018-07-19T19:53:48.733Z,5.10
2018-07-19T19:56:16.948Z,4.73
2018-07-19T19:58:45.225Z,4.83
2018-07-19T20:01:13.380Z,4.00
2018-07-19T20:03:41.604Z,3.80
2018-07-19T20:06:09.852Z,4.00
2018-07-19T20:08:38.085Z,4.63
2018-07-19T20:11:06.330Z,4.13
2018-07-19T20:13:34.536Z,3.83
2018-07-19T20:16:02.778Z,3.60
2018-07-19T20:18:31.032Z,3.60
2018-07-19T20:20:59.239Z,4.00
2018-07-19T20:23:27.477Z,4.10
2018-07-19T20:25:56.161Z,4.60
2018-07-19T20:28:24.372Z,4.70
2018-07-19T20:30:52.604Z,4.07
2018-07-19T20:33:20.836Z,4.17
2018-07-19T20:35:49.091Z,3.90
2018-07-19T20:38:17.313Z,4.47
2018-07-19T20:40:45.520Z,4.53
2018-07-19T20:43:13.765Z,5.13
2018-07-19T20:45:41.993Z,4.80
2018-07-19T20:48:10.309Z,4.57
2018-07-19T20:50:38.525Z,5.50
2018-07-19T20:53:06.736Z,4.87
2018-07-19T20:55:35.039Z,5.00
2018-07-19T20:58:03.273Z,4.40
2018-07-19T21:00:31.497Z,4.90
2018-07-19T21:02:59.710Z,4.20
2018-07-19T21:05:27.961Z,5.90
2018-07-19T21:07:56.280Z,5.83
2018-07-19T21:10:24.507Z,5.03
2018-07-19T21:12:52.729Z,5.07
2018-07-19T21:15:20.972Z,4.87
2018-07-19T21:17:49.223Z,5.00
2018-07-19T21:20:17.460Z,4.90
2018-07-19T21:22:45.695Z,4.50
2018-07-19T21:25:13.946Z,5.07
2018-07-19T21:27:42.205Z,5.00
2018-07-19T21:30:10.505Z,5.00
2018-07-19T21:32:38.708Z,4.77
2018-07-19T21:35:06.945Z,4.63
2018-07-19T21:37:35.144Z,4.20
2018-07-19T21:40:03.400Z,4.50
2018-07-19T21:42:31.612Z,4.73
2018-07-19T21:44:59.844Z,4.43
2018-07-19T21:47:28.056Z,4.90
2018-07-19T21:49:56.314Z,6.03
2018-07-19T21:52:24.545Z,4.70
2018-07-19T21:54:52.773Z,4.50
2018-07-19T21:57:20.980Z,4.10
2018-07-19T21:59:49.209Z,4.90
2018-07-19T22:02:17.448Z,4.30
2018-07-19T22:04:45.649Z,4.53
2018-07-19T22:07:13.865Z,5.13
2018-07-19T22:09:42.126Z,4.80
2018-07-19T22:12:10.413Z,4.77
2018-07-19T22:14:38.664Z,4.50
2018-07-19T22:17:06.897Z,5.17
2018-07-19T22:19:35.103Z,5.00
2018-07-19T22:22:03.340Z,5.10
2018-07-19T22:24:31.572Z,4.80
2018-07-19T22:26:59.809Z,5.80
2018-07-19T22:29:28.049Z,5.43
2018-07-19T22:31:56.245Z,5.03
2018-07-19T22:34:24.463Z,5.40
2018-07-19T22:36:52.679Z,4.93
2018-07-19T22:39:20.900Z,5.10
2018-07-19T22:41:49.097Z,5.07
2018-07-19T22:44:17.356Z,5.57
2018-07-19T22:46:45.634Z,5.30
2018-07-19T22:49:13.880Z,4.90
2018-07-19T22:51:42.108Z,4.63
2018-07-19T22:54:10.320Z,4.57
2018-07-19T22:56:38.537Z,4.77
2018-07-19T22:59:06.824Z,5.40
2018-07-19T23:01:35.045Z,4.90
2018-07-19T23:04:03.269Z,5.20
2018-07-19T23:06:31.513Z,5.30
2018-07-19T23:08:59.737Z,4.77
2018-07-19T23:11:27.989Z,4.97
2018-07-19T23:13:56.251Z,5.50
2018-07-19T23:16:24.571Z,6.80
2018-07-19T23:18:52.772Z,6.13
2018-07-19T23:21:21.000Z,5.87
2018-07-19T23:23:49.205Z,5.10
2018-07-19T23:26:17.415Z,5.20
2018-07-19T23:28:45.648Z,5.07
2018-07-19T23:31:13.876Z,6.10
2018-07-19T23:33:42.134Z,5.53
2018-07-19T23:36:16.741Z,4.47
2018-07-19T23:38:55.258Z,5.10
2018-07-19T23:41:28.476Z,4.80
2018-07-19T23:44:02.205Z,5.53
2018-07-19T23:46:34.372Z,5.10
2018-07-19T23:49:06.946Z,4.83
2018-07-19T23:51:36.351Z,5.67
2018-07-19T23:54:04.587Z,5.23
2018-07-19T23:56:33.240Z,6.03
2018-07-19T23:59:01.461Z,5.87
